createdAt,value
2018-02-07T00:01:06.618Z,-0.40
2018-02-07T00:03:34.948Z,-0.50
2018-02-07T00:06:03.175Z,-0.50
2018-02-07T00:08:31.788Z,-0.50
2018-02-07T00:11:00.324Z,-0.60
2018-02-07T00:13:28.617Z,-0.60
2018-02-07T00:15:56.887Z,-0.70
2018-02-07T00:18:26.584Z,-0.70
2018-02-07T00:20:54.892Z,-0.80
2018-02-07T00:23:23.173Z,-0.80
2018-02-07T00:25:51.792Z,-0.80
2018-02-07T00:28:20.046Z,-0.80
2018-02-07T00:30:48.290Z,-0.80
2018-02-07T00:33:16.549Z,-0.80
2018-02-07T00:38:14.477Z,-0.90
2018-02-07T00:40:42.723Z,-0.90
2018-02-07T00:43:10.975Z,-0.90
2018-02-07T00:45:39.985Z,-1.00
2018-02-07T00:48:08.586Z,-1.00
2018-02-07T00:50:36.836Z,-1.00
2018-02-07T00:53:05.886Z,-1.00
2018-02-07T00:55:34.137Z,-1.10
2018-02-07T00:58:02.422Z,-1.10
2018-02-07T01:00:30.723Z,-1.10
2018-02-07T01:02:58.971Z,-1.10
2018-02-07T01:05:27.603Z,-1.20
2018-02-07T01:07:55.890Z,-1.20
2018-02-07T01:10:24.165Z,-1.20
2018-02-07T01:12:52.416Z,-1.30
2018-02-07T01:15:20.864Z,-1.30
2018-02-07T01:17:49.165Z,-1.30
2018-02-07T01:20:17.388Z,-1.40
2018-02-07T01:22:46.503Z,-1.40
2018-02-07T01:25:14.776Z,-1.50
2018-02-07T01:27:43.100Z,-1.50
2018-02-07T01:30:11.340Z,-1.50
2018-02-07T01:32:40.123Z,-1.50
2018-02-07T01:35:08.489Z,-1.50
2018-02-07T01:37:36.893Z,-1.50
2018-02-07T01:40:05.187Z,-1.60
2018-02-07T01:42:34.422Z,-1.60
2018-02-07T01:45:02.773Z,-1.50
2018-02-07T01:47:31.056Z,-1.50
2018-02-07T01:49:59.430Z,-1.50
2018-02-07T01:52:27.720Z,-1.50
2018-02-07T01:54:56.428Z,-1.50
2018-02-07T01:57:24.693Z,-1.50
2018-02-07T01:59:52.971Z,-1.40
2018-02-07T02:02:21.226Z,-1.40
2018-02-07T02:04:49.461Z,-1.50
2018-02-07T02:07:17.732Z,-1.40
2018-02-07T02:09:46.736Z,-1.40
2018-02-07T02:12:15.047Z,-1.40
2018-02-07T02:14:43.320Z,-1.40
2018-02-07T02:17:12.149Z,-1.40
2018-02-07T02:19:40.495Z,-1.40
2018-02-07T02:22:08.772Z,-1.50
2018-02-07T02:24:37.920Z,-1.40
2018-02-07T02:27:06.942Z,-1.40
2018-02-07T02:29:35.226Z,-1.40
2018-02-07T02:32:03.464Z,-1.50
2018-02-07T02:34:32.520Z,-1.60
2018-02-07T02:37:00.749Z,-1.60
2018-02-07T02:39:32.305Z,-1.60
2018-02-07T02:42:07.175Z,-1.60
2018-02-07T02:44:35.902Z,-1.70
2018-02-07T02:47:04.149Z,-1.70
2018-02-07T02:49:33.949Z,-1.70
2018-02-07T02:52:02.256Z,-1.70
2018-02-07T02:54:30.509Z,-1.70
2018-02-07T02:56:58.782Z,-1.70
2018-02-07T02:59:27.076Z,-1.80
2018-02-07T03:01:55.750Z,-1.80
2018-02-07T03:04:24.053Z,-1.80
2018-02-07T03:06:52.298Z,-1.80
2018-02-07T03:09:20.562Z,-1.80
2018-02-07T03:11:48.815Z,-1.90
2018-02-07T03:14:17.097Z,-1.90
2018-02-07T03:16:45.402Z,-1.90
2018-02-07T03:19:14.099Z,-1.90
2018-02-07T03:21:42.399Z,-1.90
2018-02-07T03:24:10.654Z,-1.90
2018-02-07T03:26:38.933Z,-2.00
2018-02-07T03:29:07.235Z,-2.00
2018-02-07T03:31:35.499Z,-2.00
2018-02-07T03:34:03.751Z,-2.00
2018-02-07T03:36:32.026Z,-2.00
2018-02-07T03:39:00.326Z,-2.00
2018-02-07T03:41:29.048Z,-2.10
2018-02-07T03:43:58.069Z,-2.10
2018-02-07T03:46:26.338Z,-2.10
2018-02-07T03:48:54.610Z,-2.10
2018-02-07T03:51:22.904Z,-2.10
2018-02-07T03:53:51.167Z,-2.20
2018-02-07T03:56:19.465Z,-2.20
2018-02-07T03:58:47.776Z,-2.10
2018-02-07T04:01:16.068Z,-2.10
2018-02-07T04:03:44.378Z,-2.10
2018-02-07T04:06:12.634Z,-2.20
2018-02-07T04:08:42.134Z,-2.20
2018-02-07T04:11:10.396Z,-2.20
2018-02-07T04:13:38.701Z,-2.20
2018-02-07T04:16:07.854Z,-2.20
2018-02-07T04:18:36.127Z,-2.20
2018-02-07T04:21:04.451Z,-2.20
2018-02-07T04:23:33.511Z,-2.20
2018-02-07T04:26:01.750Z,-2.20
2018-02-07T04:28:30.023Z,-2.20
2018-02-07T04:30:58.703Z,-2.20
2018-02-07T04:33:26.989Z,-2.20
2018-02-07T04:35:55.238Z,-2.20
2018-02-07T04:38:24.308Z,-2.20
2018-02-07T04:40:52.613Z,-2.20
2018-02-07T04:43:21.639Z,-2.20
2018-02-07T04:45:49.889Z,-2.30
2018-02-07T04:48:18.461Z,-2.30
2018-02-07T04:50:48.367Z,-2.30
2018-02-07T04:53:16.670Z,-2.30
2018-02-07T04:55:44.970Z,-2.30
2018-02-07T04:58:13.249Z,-2.30
2018-02-07T05:00:41.555Z,-2.40
2018-02-07T05:03:09.820Z,-2.40
2018-02-07T05:05:38.125Z,-2.40
2018-02-07T05:08:06.418Z,-2.40
2018-02-07T05:10:35.098Z,-2.40
2018-02-07T05:13:03.384Z,-2.40
2018-02-07T05:15:32.446Z,-2.50
2018-02-07T05:18:00.726Z,-2.50
2018-02-07T05:20:28.982Z,-2.50
2018-02-07T05:22:57.241Z,-2.40
2018-02-07T05:25:25.525Z,-2.50
2018-02-07T05:27:54.225Z,-2.60
2018-02-07T05:30:22.538Z,-2.60
2018-02-07T05:32:50.774Z,-2.60
2018-02-07T05:35:19.047Z,-2.60
2018-02-07T05:37:47.313Z,-2.60
2018-02-07T05:40:15.640Z,-2.60
2018-02-07T05:42:43.871Z,-2.70
2018-02-07T05:45:12.256Z,-2.70
2018-02-07T05:47:40.563Z,-2.70
2018-02-07T05:50:09.689Z,-2.70
2018-02-07T05:52:38.757Z,-2.70
2018-02-07T05:55:07.049Z,-2.80
2018-02-07T05:57:35.355Z,-2.70
2018-02-07T06:00:04.403Z,-2.80
2018-02-07T06:02:33.035Z,-2.70
2018-02-07T06:05:01.304Z,-2.80
2018-02-07T06:07:30.367Z,-2.70
2018-02-07T06:09:58.697Z,-2.80
2018-02-07T06:12:26.954Z,-2.70
2018-02-07T06:14:55.985Z,-2.80
2018-02-07T06:17:24.250Z,-2.80
2018-02-07T06:19:52.530Z,-2.80
2018-02-07T06:22:20.791Z,-2.80
2018-02-07T06:24:49.823Z,-2.70
2018-02-07T06:27:18.079Z,-2.70
2018-02-07T06:29:46.412Z,-2.70
2018-02-07T06:32:14.686Z,-2.70
2018-02-07T06:34:42.948Z,-2.70
2018-02-07T06:37:11.219Z,-2.60
2018-02-07T06:39:39.479Z,-2.60
2018-02-07T06:42:07.807Z,-2.60
2018-02-07T06:44:36.108Z,-2.60
2018-02-07T06:47:04.746Z,-2.50
2018-02-07T06:49:33.090Z,-2.50
2018-02-07T06:52:01.378Z,-2.50
2018-02-07T06:54:29.734Z,-2.50
2018-02-07T06:56:57.989Z,-2.50
2018-02-07T06:59:27.189Z,-2.50
2018-02-07T07:01:56.230Z,-2.40
2018-02-07T07:04:24.497Z,-2.40
2018-02-07T07:06:52.791Z,-2.40
2018-02-07T07:09:21.410Z,-2.40
2018-02-07T07:11:49.654Z,-2.40
2018-02-07T07:14:17.951Z,-2.30
2018-02-07T07:16:46.268Z,-2.30
2018-02-07T07:19:14.569Z,-2.20
2018-02-07T07:21:42.868Z,-2.20
2018-02-07T07:24:11.136Z,-2.10
2018-02-07T07:26:39.837Z,-2.00
2018-02-07T07:29:08.095Z,-2.00
2018-02-07T07:31:36.413Z,-1.90
2018-02-07T07:34:04.685Z,-1.90
2018-02-07T07:36:32.960Z,-1.80
2018-02-07T07:39:01.215Z,-1.70
2018-02-07T07:41:29.462Z,-1.60
2018-02-07T07:43:57.728Z,-1.50
2018-02-07T07:46:25.976Z,-1.50
2018-02-07T07:48:54.631Z,-1.40
2018-02-07T07:51:22.876Z,-1.30
2018-02-07T07:53:51.182Z,-1.20
2018-02-07T07:56:19.444Z,-1.20
2018-02-07T07:58:47.804Z,-1.10
2018-02-07T08:01:16.054Z,-1.00
2018-02-07T08:03:45.114Z,-0.90
2018-02-07T08:06:13.790Z,-0.90
2018-02-07T08:08:42.098Z,-0.80
2018-02-07T08:11:10.436Z,-0.70
2018-02-07T08:13:38.697Z,-0.70
2018-02-07T08:16:07.681Z,-0.60
2018-02-07T08:18:37.419Z,-0.50
2018-02-07T08:21:05.655Z,-0.50
2018-02-07T08:23:34.685Z,-0.30
2018-02-07T08:26:02.936Z,-0.40
2018-02-07T08:28:32.394Z,-0.20
2018-02-07T08:31:00.698Z,-0.20
2018-02-07T08:33:28.945Z,-0.10
2018-02-07T08:35:57.219Z,0.00
2018-02-07T08:38:25.463Z,0.00
2018-02-07T08:40:54.524Z,0.10
2018-02-07T08:43:22.741Z,0.20
2018-02-07T08:45:51.382Z,0.30
2018-02-07T08:48:19.615Z,0.40
2018-02-07T08:50:47.893Z,0.40
2018-02-07T08:53:16.185Z,0.50
2018-02-07T08:55:44.464Z,0.50
2018-02-07T08:58:12.767Z,0.60
2018-02-07T09:00:41.556Z,0.70
2018-02-07T09:03:09.808Z,0.80
2018-02-07T09:05:38.062Z,0.90
2018-02-07T09:08:06.648Z,1.00
2018-02-07T09:10:34.927Z,1.10
2018-02-07T09:13:03.162Z,1.10
2018-02-07T09:15:32.190Z,1.30
2018-02-07T09:18:00.480Z,1.30
2018-02-07T09:20:28.730Z,1.30
2018-02-07T09:22:57.011Z,1.40
2018-02-07T09:25:25.617Z,1.50
2018-02-07T09:27:53.902Z,1.60
2018-02-07T09:30:22.189Z,1.70
2018-02-07T09:32:50.438Z,1.70
2018-02-07T09:35:18.728Z,1.80
2018-02-07T09:37:47.018Z,1.90
2018-02-07T09:40:15.292Z,2.00
2018-02-07T09:42:44.019Z,2.10
2018-02-07T09:45:12.292Z,2.10
2018-02-07T09:47:40.519Z,2.20
2018-02-07T09:50:08.774Z,2.40
2018-02-07T09:52:37.067Z,2.50
2018-02-07T09:55:05.720Z,2.50
2018-02-07T09:57:34.767Z,2.70
2018-02-07T10:00:03.055Z,2.70
2018-02-07T10:02:31.312Z,2.70
2018-02-07T10:04:59.543Z,2.80
2018-02-07T10:07:28.612Z,2.90
2018-02-07T10:09:56.887Z,2.90
2018-02-07T10:12:25.610Z,3.00
2018-02-07T10:14:54.680Z,3.10
2018-02-07T10:17:22.960Z,3.10
2018-02-07T10:19:51.239Z,3.10
2018-02-07T10:22:19.479Z,3.20
2018-02-07T10:24:47.783Z,3.20
2018-02-07T10:27:16.061Z,3.30
2018-02-07T10:29:44.659Z,3.40
2018-02-07T10:32:12.912Z,3.60
2018-02-07T10:34:41.200Z,3.80
2018-02-07T10:37:09.492Z,3.90
2018-02-07T10:39:37.732Z,4.00
2018-02-07T10:42:06.041Z,4.10
2018-02-07T10:44:34.322Z,4.20
2018-02-07T10:47:03.664Z,4.30
2018-02-07T10:49:31.944Z,4.30
2018-02-07T10:52:00.178Z,4.40
2018-02-07T10:54:28.483Z,4.40
2018-02-07T10:56:57.523Z,4.40
2018-02-07T10:59:25.808Z,4.40
2018-02-07T11:01:54.612Z,4.50
2018-02-07T11:04:23.263Z,4.50
2018-02-07T11:06:51.549Z,4.50
2018-02-07T11:09:19.833Z,4.60
2018-02-07T11:11:48.098Z,4.70
2018-02-07T11:14:16.383Z,4.70
2018-02-07T11:16:44.642Z,4.70
2018-02-07T11:19:12.920Z,4.80
2018-02-07T11:21:41.561Z,4.80
2018-02-07T11:24:09.786Z,4.80
2018-02-07T11:26:38.029Z,4.80
2018-02-07T11:29:06.291Z,4.80
2018-02-07T11:31:35.292Z,4.80
2018-02-07T11:34:04.315Z,4.80
2018-02-07T11:36:32.558Z,4.80
2018-02-07T11:39:01.581Z,5.00
2018-02-07T11:41:29.863Z,5.00
2018-02-07T11:43:58.503Z,5.10
2018-02-07T11:46:26.768Z,5.20
2018-02-07T11:48:55.013Z,5.20
2018-02-07T11:51:23.272Z,5.30
2018-02-07T11:53:51.567Z,5.40
2018-02-07T11:56:19.815Z,5.50
2018-02-07T11:58:48.063Z,5.60
2018-02-07T12:01:16.376Z,5.70
2018-02-07T12:03:44.614Z,5.80
2018-02-07T12:06:13.221Z,5.90
2018-02-07T12:08:42.225Z,6.20
2018-02-07T12:11:10.806Z,6.10
2018-02-07T12:13:39.813Z,6.30
2018-02-07T12:16:08.049Z,6.30
2018-02-07T12:18:36.321Z,6.40
2018-02-07T12:21:04.569Z,6.40
2018-02-07T12:23:33.162Z,6.50
2018-02-07T12:26:01.396Z,6.50
2018-02-07T12:28:29.642Z,6.60
2018-02-07T12:30:57.888Z,6.60
2018-02-07T12:33:26.129Z,6.60
2018-02-07T12:35:54.393Z,6.70
2018-02-07T12:38:23.396Z,6.80
2018-02-07T12:40:52.068Z,6.80
2018-02-07T12:43:21.135Z,7.00
2018-02-07T12:45:49.520Z,7.00
2018-02-07T12:48:17.797Z,7.10
2018-02-07T12:50:46.030Z,7.10
2018-02-07T12:53:14.666Z,7.10
2018-02-07T12:55:42.917Z,7.00
2018-02-07T12:58:11.232Z,7.00
2018-02-07T13:00:40.260Z,7.20
2018-02-07T13:03:08.560Z,7.10
2018-02-07T13:05:36.872Z,7.30
2018-02-07T13:08:05.163Z,7.40
2018-02-07T13:10:34.668Z,7.60
2018-02-07T13:13:03.688Z,7.70
2018-02-07T13:15:31.933Z,7.70
2018-02-07T13:18:01.024Z,7.80
2018-02-07T13:20:29.297Z,7.80
2018-02-07T13:22:57.606Z,7.80
2018-02-07T13:25:26.629Z,7.80
2018-02-07T13:27:55.183Z,7.80
2018-02-07T13:30:23.427Z,7.80
2018-02-07T13:32:51.716Z,7.70
2018-02-07T13:35:20.736Z,7.40
2018-02-07T13:37:48.972Z,7.40
2018-02-07T13:40:17.324Z,7.40
2018-02-07T13:42:45.644Z,7.30
2018-02-07T13:45:14.284Z,7.20
2018-02-07T13:47:42.613Z,7.10
2018-02-07T13:50:11.694Z,6.90
2018-02-07T13:52:40.187Z,6.90
2018-02-07T13:55:09.240Z,6.80
2018-02-07T13:57:37.485Z,6.80
2018-02-07T14:00:05.775Z,6.70
2018-02-07T14:02:35.179Z,6.60
2018-02-07T14:05:03.428Z,6.50
2018-02-07T14:07:31.736Z,6.50
2018-02-07T14:10:00.031Z,6.40
2018-02-07T14:12:28.288Z,6.40
2018-02-07T14:14:56.912Z,6.30
2018-02-07T14:17:25.181Z,6.20
2018-02-07T14:19:53.402Z,6.20
2018-02-07T14:22:21.702Z,6.10
2018-02-07T14:24:49.944Z,6.10
2018-02-07T14:27:19.004Z,6.00
2018-02-07T14:29:47.237Z,6.00
2018-02-07T14:32:15.562Z,6.00
2018-02-07T14:34:43.795Z,5.90
2018-02-07T14:37:12.435Z,5.90
2018-02-07T14:39:40.659Z,5.80
2018-02-07T14:42:08.939Z,5.80
2018-02-07T14:44:37.203Z,5.80
2018-02-07T14:47:05.479Z,5.80
2018-02-07T14:49:34.397Z,5.70
2018-02-07T14:52:02.702Z,5.70
2018-02-07T14:54:31.870Z,5.60
2018-02-07T14:57:00.155Z,5.60
2018-02-07T14:59:28.435Z,5.60
2018-02-07T15:01:57.530Z,5.50
2018-02-07T15:04:25.794Z,5.50
2018-02-07T15:06:54.052Z,5.50
2018-02-07T15:09:22.379Z,5.50
2018-02-07T15:11:50.623Z,5.50
2018-02-07T15:14:18.882Z,5.50
2018-02-07T15:16:47.509Z,5.40
2018-02-07T15:19:15.786Z,5.40
2018-02-07T15:21:44.036Z,5.40
2018-02-07T15:24:12.291Z,5.30
2018-02-07T15:26:40.581Z,5.30
2018-02-07T15:29:08.877Z,5.20
2018-02-07T15:31:37.111Z,5.10
2018-02-07T15:34:06.144Z,5.00
2018-02-07T15:36:34.373Z,5.00
2018-02-07T15:39:04.605Z,4.80
2018-02-07T15:41:33.612Z,4.70
2018-02-07T15:44:01.903Z,4.70
2018-02-07T15:46:30.202Z,4.60
2018-02-07T15:48:58.472Z,4.50
2018-02-07T15:51:27.169Z,4.40
2018-02-07T15:53:55.459Z,4.40
2018-02-07T15:56:23.726Z,4.30
2018-02-07T15:58:51.983Z,4.20
2018-02-07T16:01:20.265Z,4.10
2018-02-07T16:03:48.905Z,4.10
2018-02-07T16:06:17.139Z,4.00
2018-02-07T16:08:45.393Z,3.90
2018-02-07T16:11:14.307Z,3.90
2018-02-07T16:13:42.557Z,3.80
2018-02-07T16:16:10.846Z,3.70
2018-02-07T16:18:39.102Z,3.70
2018-02-07T16:21:07.755Z,3.60
2018-02-07T16:23:36.010Z,3.60
2018-02-07T16:26:04.281Z,3.50
2018-02-07T16:28:32.577Z,3.50
2018-02-07T16:31:00.856Z,3.40
2018-02-07T16:33:29.101Z,3.40
2018-02-07T16:35:57.386Z,3.30
2018-02-07T16:38:26.068Z,3.30
2018-02-07T16:40:54.305Z,3.20
2018-02-07T16:43:23.362Z,3.20
2018-02-07T16:45:51.605Z,3.20
2018-02-07T16:48:19.896Z,3.10
2018-02-07T16:50:48.573Z,3.00
2018-02-07T16:53:16.863Z,3.00
2018-02-07T16:55:45.085Z,3.00
2018-02-07T16:58:14.111Z,2.90
2018-02-07T17:00:42.371Z,2.90
2018-02-07T17:03:11.801Z,2.90
2018-02-07T17:05:40.053Z,2.90
2018-02-07T17:08:09.099Z,2.90
2018-02-07T17:10:37.403Z,2.80
2018-02-07T17:13:05.702Z,2.80
2018-02-07T17:15:34.766Z,2.80
2018-02-07T17:18:03.009Z,2.80
2018-02-07T17:20:31.361Z,2.80
2018-02-07T17:22:59.671Z,2.80
2018-02-07T17:25:28.418Z,2.80
2018-02-07T17:27:57.448Z,2.70
2018-02-07T17:30:25.690Z,2.70
2018-02-07T17:32:54.755Z,2.70
2018-02-07T17:35:23.035Z,2.60
2018-02-07T17:37:51.704Z,2.60
2018-02-07T17:40:19.949Z,2.60
2018-02-07T17:42:48.192Z,2.60
2018-02-07T17:45:17.205Z,2.60
2018-02-07T17:47:45.450Z,2.50
2018-02-07T17:50:13.710Z,2.60
2018-02-07T17:52:41.996Z,2.60
2018-02-07T17:55:10.685Z,2.60
2018-02-07T17:57:38.925Z,2.60
2018-02-07T18:00:07.233Z,2.50
2018-02-07T18:02:35.495Z,2.50
2018-02-07T18:05:03.757Z,2.50
2018-02-07T18:07:32.054Z,2.50
2018-02-07T18:10:00.313Z,2.50
2018-02-07T18:12:28.990Z,2.50
2018-02-07T18:14:57.937Z,2.50
2018-02-07T18:17:26.173Z,2.50
2018-02-07T18:19:54.450Z,2.50
2018-02-07T18:22:22.734Z,2.50
2018-02-07T18:24:51.060Z,2.50
2018-02-07T18:27:20.105Z,2.40
2018-02-07T18:29:48.398Z,2.50
2018-02-07T18:32:17.424Z,2.40
2018-02-07T18:34:46.850Z,2.40
2018-02-07T18:37:15.102Z,2.40
2018-02-07T18:39:44.158Z,2.40
2018-02-07T18:42:12.423Z,2.40
2018-02-07T18:44:40.689Z,2.40
2018-02-07T18:47:09.413Z,2.40
2018-02-07T18:49:37.654Z,2.40
2018-02-07T18:52:05.949Z,2.40
2018-02-07T18:54:34.257Z,2.50
2018-02-07T18:57:02.498Z,2.50
2018-02-07T18:59:30.811Z,2.50
2018-02-07T19:01:59.144Z,2.50
2018-02-07T19:04:27.395Z,2.50
2018-02-07T19:06:55.692Z,2.50
2018-02-07T19:09:24.365Z,2.50
2018-02-07T19:11:52.664Z,2.50
2018-02-07T19:14:20.951Z,2.50
2018-02-07T19:16:49.931Z,2.50
2018-02-07T19:19:18.209Z,2.50
2018-02-07T19:21:46.488Z,2.50
2018-02-07T19:24:14.750Z,2.50
2018-02-07T19:26:43.757Z,2.40
2018-02-07T19:29:12.750Z,2.40
2018-02-07T19:31:41.024Z,2.40
2018-02-07T19:34:09.342Z,2.40
2018-02-07T19:36:37.610Z,2.30
2018-02-07T19:39:05.875Z,2.20
2018-02-07T19:41:34.152Z,2.20
2018-02-07T19:44:02.854Z,2.20
2018-02-07T19:46:31.114Z,2.20
2018-02-07T19:49:00.151Z,2.20
2018-02-07T19:51:28.476Z,2.20
2018-02-07T19:53:56.774Z,2.20
2018-02-07T19:56:25.041Z,2.20
2018-02-07T19:58:53.285Z,2.10
2018-02-07T20:01:21.527Z,2.10
2018-02-07T20:03:50.097Z,2.10
2018-02-07T20:06:19.136Z,2.10
2018-02-07T20:08:47.450Z,2.10
2018-02-07T20:11:15.719Z,2.00
2018-02-07T20:13:44.356Z,2.00
2018-02-07T20:16:12.584Z,2.00
2018-02-07T20:18:40.891Z,2.00
2018-02-07T20:21:09.150Z,2.00
2018-02-07T20:23:37.393Z,2.00
2018-02-07T20:26:05.699Z,2.00
2018-02-07T20:28:33.954Z,2.00
2018-02-07T20:31:02.680Z,2.00
2018-02-07T20:33:30.989Z,2.00
2018-02-07T20:36:00.050Z,1.90
2018-02-07T20:38:28.355Z,1.90
2018-02-07T20:40:56.649Z,1.90
2018-02-07T20:43:26.036Z,1.90
2018-02-07T20:45:54.304Z,1.90
2018-02-07T20:48:23.286Z,1.90
2018-02-07T20:50:51.745Z,1.90
2018-02-07T20:53:19.999Z,1.90
2018-02-07T20:55:49.540Z,1.90
2018-02-07T20:58:17.771Z,1.90
2018-02-07T21:00:46.072Z,1.90
2018-02-07T21:03:14.376Z,1.80
2018-02-07T21:05:42.620Z,1.80
2018-02-07T21:08:11.303Z,1.80
2018-02-07T21:10:39.568Z,1.80
2018-02-07T21:13:07.877Z,1.80
2018-02-07T21:15:36.129Z,1.80
2018-02-07T21:18:04.376Z,1.80
2018-02-07T21:20:33.449Z,1.80
2018-02-07T21:23:01.765Z,1.80
2018-02-07T21:25:30.067Z,1.80
2018-02-07T21:27:58.400Z,1.80
2018-02-07T21:30:27.071Z,1.80
2018-02-07T21:32:55.311Z,1.80
2018-02-07T21:35:23.590Z,1.80
2018-02-07T21:37:51.833Z,1.80
2018-02-07T21:40:20.884Z,1.80
2018-02-07T21:42:49.184Z,1.80
2018-02-07T21:45:17.421Z,1.80
2018-02-07T21:47:46.161Z,1.70
2018-02-07T21:50:15.201Z,1.70
2018-02-07T21:52:43.428Z,1.70
2018-02-07T21:55:12.507Z,1.70
2018-02-07T21:57:40.732Z,1.70
2018-02-07T22:00:08.990Z,1.70
2018-02-07T22:02:37.767Z,1.70
2018-02-07T22:05:06.819Z,1.70
2018-02-07T22:07:35.049Z,1.70
2018-02-07T22:10:03.812Z,1.70
2018-02-07T22:12:32.085Z,1.70
2018-02-07T22:15:00.989Z,1.70
2018-02-07T22:17:29.296Z,1.70
2018-02-07T22:19:57.526Z,1.70
2018-02-07T22:22:25.790Z,1.70
2018-02-07T22:24:54.067Z,1.70
2018-02-07T22:27:22.316Z,1.70
2018-02-07T22:29:50.554Z,1.70
2018-02-07T22:32:19.550Z,1.70
2018-02-07T22:34:48.604Z,1.70
2018-02-07T22:37:16.839Z,1.70
2018-02-07T22:39:45.136Z,1.60
2018-02-07T22:42:13.429Z,1.60
2018-02-07T22:44:43.270Z,1.70
2018-02-07T22:47:11.515Z,1.60
2018-02-07T22:49:39.789Z,1.60
2018-02-07T22:52:08.028Z,1.60
2018-02-07T22:54:37.036Z,1.60
2018-02-07T22:57:05.314Z,1.60
2018-02-07T22:59:33.590Z,1.60
2018-02-07T23:02:01.837Z,1.60
2018-02-07T23:04:30.864Z,1.60
2018-02-07T23:06:59.616Z,1.60
2018-02-07T23:09:27.840Z,1.60
2018-02-07T23:11:56.063Z,1.60
2018-02-07T23:14:24.290Z,1.60
2018-02-07T23:16:52.531Z,1.60
2018-02-07T23:19:21.544Z,1.50
2018-02-07T23:21:49.769Z,1.50
2018-02-07T23:24:18.358Z,1.50
2018-02-07T23:26:46.630Z,1.50
2018-02-07T23:29:14.850Z,1.50
2018-02-07T23:31:43.098Z,1.40
2018-02-07T23:34:11.325Z,1.50
2018-02-07T23:36:39.580Z,1.50
2018-02-07T23:39:07.812Z,1.50
2018-02-07T23:41:37.518Z,1.50
2018-02-07T23:44:05.743Z,1.40
2018-02-07T23:46:33.993Z,1.50
2018-02-07T23:49:02.230Z,1.40
2018-02-07T23:51:30.466Z,1.40
2018-02-07T23:53:58.711Z,1.40
2018-02-07T23:56:26.938Z,1.40
2018-02-07T23:58:55.621Z,1.40
